Time;durP1;ratioP1;P1;durP2;ratioP2;P2;SDS_P1;SDS_P2;PMS_P1;PMS_P2;Temp;Humidity;BMP_temperature;BMP_pressure;BME280_temperature;BME280_humidity;BME280_pressure;Samples;Min_cycle;Max_cycle;Signal;HPM_P1;HPM_P2
2023/04/30 00:01:38;;;;;;;;;;;7.70;99.90;;;;;;4940072;28;19911;-72
2023/04/30 00:04:03;;;;;;;;;;;7.70;99.90;;;;;;4939698;28;20434;-71
2023/04/30 00:06:29;;;;;;;;;;;7.60;99.90;;;;;;4945189;28;20006;-72
2023/04/30 00:08:55;;;;;;;;;;;7.60;99.90;;;;;;4944597;28;19910;-72
2023/04/30 00:11:21;;;;;;;;;;;7.60;99.90;;;;;;4946376;28;19970;-71
2023/04/30 00:13:46;;;;;;;;;;;7.70;99.90;;;;;;4944260;28;20413;-73
2023/04/30 00:16:12;;;;;;;;;;;7.60;99.90;;;;;;4944261;28;19997;-72
2023/04/30 00:18:37;;;;;;;;;;;7.50;99.90;;;;;;4943623;28;19910;-72
2023/04/30 00:21:03;;;;;;;;;;;7.50;99.90;;;;;;4945578;28;19914;-72
2023/04/30 00:23:29;;;;;;;;;;;7.50;99.90;;;;;;4944693;28;19914;-72
2023/04/30 00:25:54;;;;;;;;;;;7.50;99.90;;;;;;4944503;28;20374;-72
2023/04/30 00:28:20;;;;;;;;;;;7.50;99.90;;;;;;4944997;28;19992;-72
2023/04/30 00:30:46;;;;;;;;;;;7.50;99.90;;;;;;4943529;28;19918;-72
2023/04/30 00:33:11;;;;;;;;;;;7.50;99.90;;;;;;4942918;28;20389;-72
2023/04/30 00:35:37;;;;;;;;;;;7.40;99.90;;;;;;4941334;28;20376;-72
2023/04/30 00:38:03;;;;;;;;;;;7.40;99.90;;;;;;4943466;28;19918;-72
2023/04/30 00:40:28;;;;;;;;;;;7.30;99.90;;;;;;4943821;28;19910;-72
2023/04/30 00:42:54;;;;;;;;;;;7.30;99.90;;;;;;4944002;28;19914;-72
2023/04/30 00:45:21;;;;;;;;;;;7.40;99.90;;;;;;4944907;28;19910;-71
2023/04/30 00:47:47;;;;;;;;;;;7.40;99.90;;;;;;4945109;28;20301;-71
2023/04/30 00:50:14;;;;;;;;;;;7.40;99.90;;;;;;4942865;28;20298;-71
2023/04/30 00:52:41;;;;;;;;;;;7.30;99.90;;;;;;4946100;28;19926;-71
2023/04/30 00:55:06;;;;;;;;;;;7.20;99.90;;;;;;4969813;28;19925;-71
2023/04/30 00:57:33;;;;;;;;;;;7.20;99.90;;;;;;4943099;28;19914;-71
2023/04/30 00:59:58;;;;;;;;;;;7.20;99.90;;;;;;4944264;28;19997;-72
2023/04/30 01:02:24;;;;;;;;;;;7.20;99.90;;;;;;4945196;28;20461;-72
2023/04/30 01:04:50;;;;;;;;;;;7.20;99.90;;;;;;4973203;28;20127;-72
2023/04/30 01:07:16;;;;;;;;;;;7.10;99.90;;;;;;4946218;28;19921;-71
2023/04/30 01:09:42;;;;;;;;;;;7.10;99.90;;;;;;4942413;28;20329;-71
2023/04/30 01:12:12;;;;;;;;;;;7.10;99.90;;;;;;4948504;23;19935;-72
2023/04/30 01:15:00;;;;;;;;;;;7.10;99.90;;;;;;4927527;29;19919;-68
2023/04/30 01:17:32;;;;;;;;;;;7.10;99.90;;;;;;4923434;29;19915;-69
2023/04/30 01:19:59;;;;;;;;;;;7.10;99.90;;;;;;4919811;29;19917;-72
2023/04/30 01:22:24;;;;;;;;;;;7.10;99.90;;;;;;4922200;29;19961;-69
2023/04/30 01:24:56;;;;;;;;;;;7.10;99.90;;;;;;4921025;29;20373;-74
2023/04/30 01:27:52;;;;;;;;;;;7.10;99.90;;;;;;4922328;29;19926;-69
2023/04/30 01:30:18;;;;;;;;;;;7.10;99.90;;;;;;4922337;29;20142;-70
2023/04/30 01:32:43;;;;;;;;;;;7.00;99.90;;;;;;4923795;29;19919;-69
2023/04/30 01:35:09;;;;;;;;;;;7.00;99.90;;;;;;4920235;29;19948;-69
2023/04/30 01:37:35;;;;;;;;;;;6.90;99.90;;;;;;4919486;29;19936;-69
2023/04/30 01:40:00;;;;;;;;;;;7.00;99.90;;;;;;4924164;29;19911;-68
2023/04/30 01:42:49;;;;;;;;;;;7.00;99.90;;;;;;4924775;29;19910;-70
2023/04/30 01:45:33;;;;;;;;;;;7.00;99.90;;;;;;4918803;29;19919;-70
2023/04/30 01:48:06;;;;;;;;;;;7.00;99.90;;;;;;4944530;28;19922;-69
2023/04/30 01:50:46;;;;;;;;;;;6.90;99.90;;;;;;4927568;29;19915;-72
2023/04/30 01:53:15;;;;;;;;;;;6.90;99.90;;;;;;4922323;29;20021;-69
2023/04/30 01:55:55;;;;;;;;;;;6.90;99.90;;;;;;4922587;29;19922;-69
2023/04/30 01:58:22;;;;;;;;;;;7.00;99.90;;;;;;4921519;29;21071;-70
2023/04/30 02:00:48;;;;;;;;;;;7.00;99.90;;;;;;4922322;29;19926;-68
2023/04/30 02:03:13;;;;;;;;;;;7.00;99.90;;;;;;4923671;29;19915;-77
2023/04/30 02:05:39;;;;;;;;;;;6.90;99.90;;;;;;4928279;29;19926;-72
2023/04/30 02:08:05;;;;;;;;;;;6.90;99.90;;;;;;4922672;29;19910;-69
2023/04/30 02:10:30;;;;;;;;;;;6.80;99.90;;;;;;4939202;28;20310;-72
2023/04/30 02:12:56;;;;;;;;;;;6.80;99.90;;;;;;4922252;29;19922;-70
2023/04/30 02:15:22;;;;;;;;;;;6.90;99.90;;;;;;4925194;29;20525;-69
2023/04/30 02:17:47;;;;;;;;;;;6.80;99.90;;;;;;4921033;29;19971;-70
2023/04/30 02:20:13;;;;;;;;;;;6.80;99.90;;;;;;4923059;29;19928;-70
2023/04/30 02:22:38;;;;;;;;;;;6.70;99.90;;;;;;4922705;29;19918;-70
2023/04/30 02:25:04;;;;;;;;;;;6.70;99.90;;;;;;4926318;29;19915;-69
2023/04/30 02:27:30;;;;;;;;;;;6.70;99.90;;;;;;4924425;29;19950;-73
2023/04/30 02:29:56;;;;;;;;;;;6.60;99.90;;;;;;4905681;29;19925;-70
2023/04/30 02:32:22;;;;;;;;;;;6.70;99.90;;;;;;4919894;29;19923;-73
2023/04/30 02:34:48;;;;;;;;;;;6.70;99.90;;;;;;4922568;29;20051;-70
2023/04/30 02:37:13;;;;;;;;;;;6.70;99.90;;;;;;4923260;29;20247;-70
2023/04/30 02:39:40;;;;;;;;;;;6.70;99.90;;;;;;4925159;29;19914;-71
2023/04/30 02:42:05;;;;;;;;;;;6.70;99.90;;;;;;4905290;29;19946;-70
2023/04/30 02:44:31;;;;;;;;;;;6.70;99.90;;;;;;4941917;28;19977;-70
2023/04/30 02:46:56;;;;;;;;;;;6.60;99.90;;;;;;4921780;29;19914;-69
2023/04/30 02:49:22;;;;;;;;;;;6.60;99.90;;;;;;4905012;29;19922;-69
2023/04/30 02:51:48;;;;;;;;;;;6.60;99.90;;;;;;4922289;29;19914;-71
2023/04/30 02:54:13;;;;;;;;;;;6.50;99.90;;;;;;4924340;29;19929;-69
2023/04/30 02:56:39;;;;;;;;;;;6.50;99.90;;;;;;4919291;28;20653;-69
2023/04/30 02:59:05;;;;;;;;;;;6.50;99.90;;;;;;4920434;29;19949;-69
2023/04/30 03:01:30;;;;;;;;;;;6.40;99.90;;;;;;4920444;29;19910;-71
2023/04/30 03:03:57;;;;;;;;;;;6.30;99.90;;;;;;4927061;29;19972;-69
2023/04/30 03:06:22;;;;;;;;;;;6.40;99.90;;;;;;4937248;28;19915;-69
2023/04/30 03:08:48;;;;;;;;;;;6.40;99.90;;;;;;4921814;29;20382;-69
2023/04/30 03:11:14;;;;;;;;;;;6.30;99.90;;;;;;4923062;29;19977;-72
2023/04/30 03:13:40;;;;;;;;;;;6.30;99.90;;;;;;4936945;28;19973;-70
2023/04/30 03:16:05;;;;;;;;;;;6.30;99.90;;;;;;4920761;29;20009;-70
2023/04/30 03:18:31;;;;;;;;;;;6.40;99.90;;;;;;4938527;28;19911;-72
2023/04/30 03:20:57;;;;;;;;;;;6.30;99.90;;;;;;4919471;29;19922;-69
2023/04/30 03:23:23;;;;;;;;;;;6.30;99.90;;;;;;4920328;29;19911;-70
2023/04/30 03:25:48;;;;;;;;;;;6.30;99.90;;;;;;4920011;29;19919;-70
2023/04/30 03:28:14;;;;;;;;;;;6.30;99.90;;;;;;4922474;29;19911;-70
2023/04/30 03:30:40;;;;;;;;;;;6.30;99.90;;;;;;4923884;29;20011;-72
2023/04/30 03:33:06;;;;;;;;;;;6.30;99.90;;;;;;4922699;29;19953;-69
2023/04/30 03:35:32;;;;;;;;;;;6.30;99.90;;;;;;4918802;29;19911;-69
2023/04/30 03:37:58;;;;;;;;;;;6.20;99.90;;;;;;4927512;29;20379;-70
2023/04/30 03:40:24;;;;;;;;;;;6.20;99.90;;;;;;4930503;29;19914;-72
2023/04/30 03:42:49;;;;;;;;;;;6.20;99.90;;;;;;4927913;29;20006;-69
2023/04/30 03:45:15;;;;;;;;;;;6.10;99.90;;;;;;4927173;29;20340;-69
2023/04/30 03:47:41;;;;;;;;;;;6.10;99.90;;;;;;4929000;29;20354;-69
2023/04/30 03:50:07;;;;;;;;;;;6.20;99.90;;;;;;4927549;29;19925;-73
2023/04/30 03:52:33;;;;;;;;;;;6.20;99.90;;;;;;4928064;29;19915;-71
2023/04/30 03:54:58;;;;;;;;;;;6.20;99.90;;;;;;4925329;29;19974;-69
2023/04/30 03:57:24;;;;;;;;;;;6.20;99.90;;;;;;4927266;29;19910;-71
2023/04/30 03:59:50;;;;;;;;;;;6.10;99.90;;;;;;4933648;29;20014;-69
2023/04/30 04:02:15;;;;;;;;;;;6.10;99.90;;;;;;4928302;29;19937;-70
2023/04/30 04:04:41;;;;;;;;;;;6.10;99.90;;;;;;4927521;29;19921;-74
2023/04/30 04:07:08;;;;;;;;;;;6.10;99.90;;;;;;4932236;29;19922;-72
2023/04/30 04:09:34;;;;;;;;;;;6.20;99.90;;;;;;4926443;29;19911;-74
2023/04/30 04:12:00;;;;;;;;;;;6.10;99.90;;;;;;4925734;29;19919;-69
2023/04/30 04:14:28;;;;;;;;;;;6.10;99.90;;;;;;4927026;29;19965;-69
2023/04/30 04:16:56;;;;;;;;;;;6.10;99.90;;;;;;4926838;29;19917;-73
2023/04/30 04:19:22;;;;;;;;;;;6.10;99.90;;;;;;4927656;28;19911;-70
2023/04/30 04:21:48;;;;;;;;;;;6.20;99.90;;;;;;4926641;29;19938;-70
2023/04/30 04:24:14;;;;;;;;;;;6.30;99.90;;;;;;4927897;29;19954;-73
2023/04/30 04:26:40;;;;;;;;;;;6.30;99.90;;;;;;4926584;29;19989;-70
2023/04/30 04:29:07;;;;;;;;;;;6.30;99.90;;;;;;4928085;29;19922;-71
2023/04/30 04:31:33;;;;;;;;;;;6.30;99.90;;;;;;4927478;29;19954;-72
2023/04/30 04:33:59;;;;;;;;;;;6.30;99.90;;;;;;4925329;29;19969;-69
2023/04/30 04:36:26;;;;;;;;;;;6.20;99.90;;;;;;4927809;29;19918;-69
2023/04/30 04:38:52;;;;;;;;;;;6.30;99.90;;;;;;4929181;29;19921;-70
2023/04/30 04:41:18;;;;;;;;;;;6.30;99.90;;;;;;4924643;29;19914;-69
2023/04/30 04:43:43;;;;;;;;;;;6.30;99.90;;;;;;4926490;29;19918;-69
2023/04/30 04:46:10;;;;;;;;;;;6.30;99.90;;;;;;4910474;29;19929;-70
2023/04/30 04:48:35;;;;;;;;;;;6.30;99.90;;;;;;4929480;29;19938;-70
2023/04/30 04:51:01;;;;;;;;;;;6.40;99.90;;;;;;4933595;29;19911;-69
2023/04/30 04:53:26;;;;;;;;;;;6.40;99.90;;;;;;4929906;29;19929;-72
2023/04/30 04:55:52;;;;;;;;;;;6.50;99.90;;;;;;4924619;29;19968;-69
2023/04/30 04:58:17;;;;;;;;;;;6.50;99.90;;;;;;4921763;29;19922;-69
2023/04/30 05:00:44;;;;;;;;;;;6.60;99.90;;;;;;4922312;29;20033;-69
2023/04/30 05:03:09;;;;;;;;;;;6.50;99.90;;;;;;4923540;29;20026;-69
2023/04/30 05:05:35;;;;;;;;;;;6.60;99.90;;;;;;4918774;29;20061;-69
2023/04/30 05:08:00;;;;;;;;;;;6.60;99.90;;;;;;4939464;28;20161;-73
2023/04/30 05:10:26;;;;;;;;;;;6.70;99.90;;;;;;4919592;29;19915;-72
2023/04/30 05:12:52;;;;;;;;;;;6.70;99.90;;;;;;4941561;28;19922;-70
2023/04/30 05:15:17;;;;;;;;;;;6.60;99.90;;;;;;4920916;29;19915;-69
2023/04/30 05:17:43;;;;;;;;;;;6.70;99.90;;;;;;4922885;29;19977;-69
2023/04/30 05:20:09;;;;;;;;;;;6.70;99.90;;;;;;4922645;29;19915;-69
2023/04/30 05:22:35;;;;;;;;;;;6.80;99.90;;;;;;4921771;29;19914;-70
2023/04/30 05:25:00;;;;;;;;;;;6.90;99.90;;;;;;4921717;29;19936;-69
2023/04/30 05:27:26;;;;;;;;;;;6.90;99.90;;;;;;4924258;29;19969;-69
2023/04/30 05:29:51;;;;;;;;;;;6.90;99.90;;;;;;4925623;29;19951;-69
2023/04/30 05:32:17;;;;;;;;;;;7.00;99.90;;;;;;4921119;29;19919;-71
2023/04/30 05:34:43;;;;;;;;;;;7.00;99.90;;;;;;4920802;29;20406;-69
2023/04/30 05:37:08;;;;;;;;;;;7.00;99.90;;;;;;4921974;29;19990;-72
2023/04/30 05:39:34;;;;;;;;;;;7.10;99.90;;;;;;4922375;29;20489;-69
2023/04/30 05:42:01;;;;;;;;;;;7.10;99.90;;;;;;4922263;29;19915;-69
2023/04/30 05:44:29;;;;;;;;;;;7.10;99.90;;;;;;4943602;28;19914;-69
2023/04/30 05:46:55;;;;;;;;;;;7.20;99.90;;;;;;4922756;29;19918;-71
2023/04/30 05:49:20;;;;;;;;;;;7.20;99.90;;;;;;4923110;29;19917;-69
2023/04/30 05:51:46;;;;;;;;;;;7.30;99.90;;;;;;4921603;29;19966;-68
2023/04/30 05:54:11;;;;;;;;;;;7.30;99.90;;;;;;4922588;29;19930;-71
2023/04/30 05:56:37;;;;;;;;;;;7.30;99.90;;;;;;4923801;29;19922;-69
2023/04/30 05:59:03;;;;;;;;;;;7.40;99.90;;;;;;4924235;29;20715;-69
2023/04/30 06:01:28;;;;;;;;;;;7.40;99.90;;;;;;4921578;29;19915;-70
2023/04/30 06:03:54;;;;;;;;;;;7.50;99.90;;;;;;4926854;29;19910;-71
2023/04/30 06:06:19;;;;;;;;;;;7.50;99.90;;;;;;4923122;29;20379;-69
2023/04/30 06:08:45;;;;;;;;;;;7.50;99.90;;;;;;4921366;29;19922;-74
2023/04/30 06:11:14;;;;;;;;;;;7.60;99.90;;;;;;4926696;29;19915;-69
2023/04/30 06:13:40;;;;;;;;;;;7.60;99.90;;;;;;4924729;29;19915;-70
2023/04/30 06:16:06;;;;;;;;;;;7.70;99.90;;;;;;4928777;29;19906;-70
2023/04/30 06:18:32;;;;;;;;;;;7.70;99.90;;;;;;4921841;29;19911;-69
2023/04/30 06:20:57;;;;;;;;;;;7.80;99.90;;;;;;4923064;28;20335;-69
2023/04/30 06:23:23;;;;;;;;;;;7.70;99.90;;;;;;4923430;29;19907;-70
2023/04/30 06:25:51;;;;;;;;;;;7.80;99.90;;;;;;4927103;29;19918;-68
2023/04/30 06:28:16;;;;;;;;;;;7.80;99.90;;;;;;4926459;29;19915;-73
2023/04/30 06:30:42;;;;;;;;;;;7.80;99.90;;;;;;4905528;29;19935;-69
2023/04/30 06:33:08;;;;;;;;;;;7.90;99.90;;;;;;4921183;29;19919;-68
2023/04/30 06:35:34;;;;;;;;;;;7.90;99.90;;;;;;4921827;29;19915;-68
2023/04/30 06:38:00;;;;;;;;;;;8.00;99.90;;;;;;4919748;29;20940;-69
2023/04/30 06:40:25;;;;;;;;;;;8.00;99.90;;;;;;4919398;29;20002;-68
2023/04/30 06:42:51;;;;;;;;;;;8.00;99.90;;;;;;4922632;29;19918;-68
2023/04/30 06:45:18;;;;;;;;;;;8.00;99.90;;;;;;4919344;29;19915;-69
2023/04/30 06:47:45;;;;;;;;;;;8.10;99.90;;;;;;4905683;29;19912;-69
2023/04/30 06:50:10;;;;;;;;;;;8.10;99.90;;;;;;4923145;29;19986;-70
2023/04/30 06:52:36;;;;;;;;;;;8.10;99.90;;;;;;4922723;29;19972;-68
2023/04/30 06:55:02;;;;;;;;;;;8.10;99.90;;;;;;4922203;29;19911;-68
2023/04/30 06:57:27;;;;;;;;;;;8.00;99.90;;;;;;4931880;28;20057;-68
2023/04/30 06:59:53;;;;;;;;;;;8.10;99.90;;;;;;4915356;29;19918;-70
2023/04/30 07:02:19;;;;;;;;;;;8.00;99.90;;;;;;4935814;28;19990;-72
2023/04/30 07:04:45;;;;;;;;;;;8.00;99.90;;;;;;4919284;29;20387;-71
2023/04/30 07:07:11;;;;;;;;;;;8.00;99.90;;;;;;4921820;29;19919;-70
2023/04/30 07:09:39;;;;;;;;;;;8.10;99.90;;;;;;4941524;28;19936;-71
2023/04/30 07:12:05;;;;;;;;;;;8.60;99.90;;;;;;4944168;23;19925;-72
2023/04/30 07:14:30;;;;;;;;;;;8.70;99.90;;;;;;4979162;28;19965;-72
2023/04/30 07:16:56;;;;;;;;;;;8.50;99.90;;;;;;4981550;28;19921;-73
2023/04/30 07:19:22;;;;;;;;;;;8.50;99.90;;;;;;4983026;28;19913;-72
2023/04/30 07:21:48;;;;;;;;;;;8.50;99.40;;;;;;4984218;28;19921;-73
2023/04/30 07:24:14;;;;;;;;;;;8.40;99.10;;;;;;4987873;28;19917;-72
2023/04/30 07:26:41;;;;;;;;;;;8.30;98.70;;;;;;4979889;28;19910;-73
2023/04/30 07:29:06;;;;;;;;;;;8.30;98.80;;;;;;4979724;28;19921;-73
2023/04/30 07:31:33;;;;;;;;;;;8.40;99.10;;;;;;4984695;28;19910;-73
2023/04/30 07:33:58;;;;;;;;;;;8.40;99.40;;;;;;4982647;28;19920;-73
2023/04/30 07:36:26;;;;;;;;;;;8.50;99.10;;;;;;4964049;28;19913;-72
2023/04/30 07:38:52;;;;;;;;;;;8.50;97.10;;;;;;4982722;28;19905;-73
2023/04/30 07:41:17;;;;;;;;;;;8.60;97.60;;;;;;4982190;28;19910;-73
2023/04/30 07:43:43;;;;;;;;;;;8.60;97.30;;;;;;4982217;28;20415;-72
2023/04/30 07:46:09;;;;;;;;;;;8.70;97.50;;;;;;4980560;28;20357;-72
2023/04/30 07:48:34;;;;;;;;;;;8.70;97.70;;;;;;4982085;28;19921;-70
2023/04/30 07:51:00;;;;;;;;;;;8.70;97.70;;;;;;4980346;28;20459;-71
2023/04/30 07:53:26;;;;;;;;;;;8.80;98.10;;;;;;4980780;28;19918;-71
2023/04/30 07:55:52;;;;;;;;;;;8.90;97.90;;;;;;4981617;28;20357;-72
2023/04/30 07:58:17;;;;;;;;;;;8.90;97.60;;;;;;4982421;28;20424;-72
2023/04/30 08:00:43;;;;;;;;;;;8.80;96.90;;;;;;4980871;28;19910;-71
2023/04/30 08:03:08;;;;;;;;;;;8.80;97.10;;;;;;4979774;28;19914;-71
2023/04/30 08:05:34;;;;;;;;;;;8.80;97.00;;;;;;4981116;28;19914;-70
2023/04/30 08:08:00;;;;;;;;;;;8.80;96.40;;;;;;4981607;28;19969;-71
2023/04/30 08:10:26;;;;;;;;;;;8.80;96.60;;;;;;4982699;28;19976;-73
2023/04/30 08:12:52;;;;;;;;;;;8.80;96.90;;;;;;4982922;28;20169;-73
2023/04/30 08:15:20;;;;;;;;;;;8.90;96.60;;;;;;4983595;28;19914;-72
2023/04/30 08:17:48;;;;;;;;;;;9.00;96.90;;;;;;4980130;28;20318;-72
2023/04/30 08:20:13;;;;;;;;;;;9.10;97.40;;;;;;4981358;28;19914;-72
2023/04/30 08:22:39;;;;;;;;;;;9.20;96.50;;;;;;4961792;28;19964;-72
2023/04/30 08:25:05;;;;;;;;;;;9.20;96.30;;;;;;4980450;28;20289;-71
2023/04/30 08:27:31;;;;;;;;;;;9.30;96.70;;;;;;4981322;28;19920;-71
2023/04/30 08:29:57;;;;;;;;;;;9.30;96.40;;;;;;4984324;28;19917;-72
2023/04/30 08:32:22;;;;;;;;;;;9.30;95.00;;;;;;4981374;28;20001;-73
2023/04/30 08:34:48;;;;;;;;;;;9.20;95.20;;;;;;4984304;28;20038;-71
2023/04/30 08:37:14;;;;;;;;;;;9.20;94.10;;;;;;4984065;28;19914;-72
2023/04/30 08:39:40;;;;;;;;;;;9.20;94.50;;;;;;4982025;28;19914;-70
2023/04/30 08:42:07;;;;;;;;;;;9.20;94.70;;;;;;4981669;28;19928;-70
2023/04/30 08:44:35;;;;;;;;;;;9.20;94.50;;;;;;4982914;28;19977;-72
2023/04/30 08:47:02;;;;;;;;;;;9.30;93.70;;;;;;4985043;28;19941;-72
2023/04/30 08:49:31;;;;;;;;;;;9.30;92.80;;;;;;4984825;28;19914;-71
2023/04/30 08:51:59;;;;;;;;;;;9.30;94.20;;;;;;4980618;28;20397;-71
2023/04/30 08:54:25;;;;;;;;;;;9.30;93.40;;;;;;4979122;28;19918;-70
2023/04/30 08:56:50;;;;;;;;;;;9.40;93.70;;;;;;4979861;28;19920;-73
2023/04/30 08:59:16;;;;;;;;;;;9.40;93.60;;;;;;4982873;28;19914;-72
2023/04/30 09:01:41;;;;;;;;;;;9.40;93.20;;;;;;4980945;28;19945;-72
2023/04/30 09:04:07;;;;;;;;;;;9.40;93.00;;;;;;4980888;28;19918;-72
2023/04/30 09:06:33;;;;;;;;;;;9.50;92.40;;;;;;4982793;28;19909;-72
2023/04/30 09:09:07;;;;;;;;;;;9.50;92.80;;;;;;4982568;28;19997;-71
2023/04/30 09:11:33;;;;;;;;;;;9.60;92.90;;;;;;4983137;28;21312;-70
2023/04/30 09:14:02;;;;;;;;;;;9.60;91.90;;;;;;4982069;28;19968;-70
2023/04/30 09:16:31;;;;;;;;;;;9.60;92.20;;;;;;4980919;28;19917;-72
2023/04/30 09:18:57;;;;;;;;;;;9.60;92.20;;;;;;4977024;28;19921;-71
2023/04/30 09:21:30;;;;;;;;;;;9.70;91.90;;;;;;4983390;28;19969;-71
2023/04/30 09:23:57;;;;;;;;;;;9.70;92.20;;;;;;4983912;28;20700;-71
2023/04/30 09:26:29;;;;;;;;;;;9.80;92.40;;;;;;4982562;28;19910;-71
2023/04/30 09:28:56;;;;;;;;;;;9.90;91.80;;;;;;4985961;28;20316;-71
2023/04/30 09:31:23;;;;;;;;;;;9.70;91.30;;;;;;4982854;28;19910;-71
2023/04/30 09:33:49;;;;;;;;;;;9.80;91.60;;;;;;4979592;28;19921;-71
2023/04/30 09:36:15;;;;;;;;;;;9.80;91.60;;;;;;4996785;28;19924;-71
2023/04/30 09:38:41;;;;;;;;;;;9.90;92.20;;;;;;4977336;28;19921;-71
2023/04/30 09:41:19;;;;;;;;;;;10.00;91.20;;;;;;4983927;28;19929;-70
2023/04/30 09:43:45;;;;;;;;;;;10.00;90.80;;;;;;4980923;28;19920;-70
2023/04/30 09:46:11;;;;;;;;;;;10.10;90.90;;;;;;4983537;28;20298;-72
2023/04/30 09:48:40;;;;;;;;;;;10.10;90.90;;;;;;4983842;28;19914;-71
2023/04/30 09:51:06;;;;;;;;;;;10.10;91.10;;;;;;4983147;28;20396;-71
2023/04/30 09:53:32;;;;;;;;;;;10.20;90.90;;;;;;4980446;28;19918;-72
2023/04/30 09:56:01;;;;;;;;;;;10.20;90.70;;;;;;4980350;28;19910;-71
2023/04/30 09:58:28;;;;;;;;;;;10.30;89.60;;;;;;4981001;28;19920;-71
2023/04/30 10:00:55;;;;;;;;;;;10.30;89.30;;;;;;4982853;28;20582;-70
2023/04/30 10:03:22;;;;;;;;;;;10.40;85.80;;;;;;4982872;28;20343;-71
2023/04/30 10:05:49;;;;;;;;;;;10.40;86.80;;;;;;4983133;28;19910;-71
2023/04/30 10:08:30;;;;;;;;;;;10.50;84.30;;;;;;4985155;28;20012;-71
2023/04/30 10:11:03;;;;;;;;;;;10.50;85.90;;;;;;4982777;28;20001;-70
2023/04/30 10:13:34;;;;;;;;;;;10.50;86.70;;;;;;4981828;28;20053;-71
2023/04/30 10:16:06;;;;;;;;;;;10.60;87.40;;;;;;4980476;28;19910;-71
2023/04/30 10:18:38;;;;;;;;;;;10.60;84.50;;;;;;5000153;28;20258;-72
2023/04/30 10:21:09;;;;;;;;;;;10.60;85.70;;;;;;4982504;28;19917;-71
2023/04/30 10:23:35;;;;;;;;;;;10.70;84.40;;;;;;4981985;28;19913;-68
2023/04/30 10:26:01;;;;;;;;;;;10.80;85.00;;;;;;4961350;28;19914;-71
2023/04/30 10:28:27;;;;;;;;;;;10.80;84.40;;;;;;4980439;28;19956;-71
2023/04/30 10:30:53;;;;;;;;;;;10.80;85.10;;;;;;4963329;28;20543;-71
2023/04/30 10:33:24;;;;;;;;;;;10.80;86.60;;;;;;4981542;28;19925;-71
2023/04/30 10:35:58;;;;;;;;;;;10.90;87.30;;;;;;4982921;28;19933;-71
2023/04/30 10:38:25;;;;;;;;;;;10.90;84.40;;;;;;4980127;28;19917;-71
2023/04/30 10:40:55;;;;;;;;;;;11.00;83.70;;;;;;4983376;28;19914;-71
2023/04/30 10:43:22;;;;;;;;;;;11.00;84.20;;;;;;4980288;28;19910;-71
2023/04/30 10:45:48;;;;;;;;;;;11.00;82.80;;;;;;4981230;28;19910;-71
2023/04/30 10:48:15;;;;;;;;;;;11.10;83.00;;;;;;4981688;28;19924;-71
2023/04/30 10:50:41;;;;;;;;;;;11.10;85.50;;;;;;4981631;28;19910;-71
2023/04/30 10:53:11;;;;;;;;;;;11.30;84.30;;;;;;4996328;28;19929;-71
2023/04/30 10:55:44;;;;;;;;;;;11.40;83.60;;;;;;4965851;28;20500;-71
2023/04/30 10:58:28;;;;;;;;;;;11.40;82.80;;;;;;4980865;28;20406;-71
2023/04/30 11:01:13;;;;;;;;;;;11.50;82.20;;;;;;4965912;28;20509;-71
2023/04/30 11:03:39;;;;;;;;;;;11.50;81.20;;;;;;4979299;28;19995;-71
2023/04/30 11:06:18;;;;;;;;;;;11.80;81.60;;;;;;4980598;28;19961;-70
2023/04/30 11:08:45;;;;;;;;;;;11.90;80.50;;;;;;4980231;28;19917;-69
2023/04/30 11:11:13;;;;;;;;;;;12.30;82.00;;;;;;4982464;28;19916;-67
2023/04/30 11:13:40;;;;;;;;;;;13.30;77.20;;;;;;4980534;28;19922;-67
2023/04/30 11:16:06;;;;;;;;;;;14.30;72.00;;;;;;4980027;28;19983;-69
2023/04/30 11:18:32;;;;;;;;;;;15.40;69.20;;;;;;4968858;28;19918;-67
2023/04/30 11:20:57;;;;;;;;;;;16.10;66.60;;;;;;4963209;28;20403;-68
2023/04/30 11:23:25;;;;;;;;;;;17.60;60.30;;;;;;4979281;28;19913;-68
2023/04/30 11:25:52;;;;;;;;;;;18.60;57.00;;;;;;4980209;28;19988;-68
2023/04/30 11:28:20;;;;;;;;;;;20.20;53.20;;;;;;4978971;28;19963;-68
2023/04/30 11:30:54;;;;;;;;;;;21.20;50.10;;;;;;4978776;28;19918;-68
2023/04/30 11:33:21;;;;;;;;;;;22.40;47.70;;;;;;4975453;28;20440;-68
2023/04/30 11:35:48;;;;;;;;;;;22.70;46.60;;;;;;4987834;28;19968;-68
2023/04/30 11:38:15;;;;;;;;;;;22.10;47.80;;;;;;4974849;28;21055;-69
2023/04/30 11:40:41;;;;;;;;;;;23.00;46.50;;;;;;4974823;28;20365;-68
2023/04/30 11:43:07;;;;;;;;;;;21.70;45.90;;;;;;4976689;28;19917;-68
2023/04/30 11:45:33;;;;;;;;;;;21.60;45.50;;;;;;4994815;28;19948;-69
2023/04/30 11:47:59;;;;;;;;;;;21.20;46.00;;;;;;4960623;28;20357;-69
2023/04/30 11:50:28;;;;;;;;;;;20.30;46.20;;;;;;4981606;28;20041;-68
2023/04/30 11:52:56;;;;;;;;;;;18.90;48.50;;;;;;4982059;28;20384;-69
2023/04/30 11:55:22;;;;;;;;;;;18.50;50.90;;;;;;4978117;28;19914;-69
2023/04/30 11:57:49;;;;;;;;;;;17.90;51.90;;;;;;4975006;28;19985;-69
2023/04/30 12:00:16;;;;;;;;;;;18.20;50.80;;;;;;4977002;28;20005;-68
2023/04/30 12:02:43;;;;;;;;;;;18.60;51.10;;;;;;4984045;28;19914;-69
2023/04/30 12:05:15;;;;;;;;;;;19.00;52.30;;;;;;4979601;28;20467;-68
2023/04/30 12:07:53;;;;;;;;;;;19.10;49.80;;;;;;4980631;28;19913;-69
2023/04/30 12:10:19;;;;;;;;;;;19.10;50.30;;;;;;4981055;28;19972;-68
2023/04/30 12:12:46;;;;;;;;;;;19.10;49.90;;;;;;4983734;28;20480;-68
2023/04/30 12:15:14;;;;;;;;;;;19.10;51.10;;;;;;4979471;28;20254;-69
2023/04/30 12:17:39;;;;;;;;;;;19.10;49.90;;;;;;4982779;28;20000;-68
2023/04/30 12:20:06;;;;;;;;;;;19.20;49.10;;;;;;4984413;28;20040;-68
2023/04/30 12:22:32;;;;;;;;;;;18.60;48.50;;;;;;4981714;28;19914;-68
2023/04/30 12:24:58;;;;;;;;;;;18.90;49.30;;;;;;4984445;28;20262;-68
2023/04/30 12:27:24;;;;;;;;;;;19.30;49.80;;;;;;4997850;28;19960;-67
2023/04/30 12:29:53;;;;;;;;;;;19.60;50.80;;;;;;4981736;28;19914;-69
2023/04/30 12:32:21;;;;;;;;;;;19.70;48.50;;;;;;4983859;28;19965;-70
2023/04/30 12:34:47;;;;;;;;;;;19.60;49.30;;;;;;4982007;28;19910;-71
2023/04/30 12:37:16;;;;;;;;;;;20.10;47.60;;;;;;4982657;28;21570;-71
2023/04/30 12:39:42;;;;;;;;;;;19.70;50.10;;;;;;4984070;28;19948;-70
2023/04/30 12:42:07;;;;;;;;;;;20.20;48.80;;;;;;4982736;28;20369;-71
2023/04/30 12:44:41;;;;;;;;;;;20.60;47.80;;;;;;4983648;28;19918;-71
2023/04/30 12:47:08;;;;;;;;;;;21.90;45.70;;;;;;4966606;28;20020;-71
2023/04/30 12:49:34;;;;;;;;;;;22.20;46.00;;;;;;4982153;28;19972;-71
2023/04/30 12:52:06;;;;;;;;;;;22.40;45.30;;;;;;4980005;28;20405;-70
2023/04/30 12:54:32;;;;;;;;;;;22.90;44.50;;;;;;4981258;28;19931;-71
2023/04/30 12:56:59;;;;;;;;;;;23.20;44.20;;;;;;4982887;28;19980;-67
2023/04/30 12:59:24;;;;;;;;;;;22.80;43.70;;;;;;4978693;28;19917;-68
2023/04/30 13:01:50;;;;;;;;;;;23.30;43.70;;;;;;4983210;28;19914;-70
2023/04/30 13:04:16;;;;;;;;;;;23.10;42.90;;;;;;4981571;28;19921;-69
2023/04/30 13:06:42;;;;;;;;;;;23.40;43.10;;;;;;4982843;28;19910;-68
2023/04/30 13:09:08;;;;;;;;;;;23.50;42.70;;;;;;4980608;28;20252;-70
2023/04/30 13:11:34;;;;;;;;;;;23.20;43.30;;;;;;4981005;28;19914;-69
2023/04/30 13:13:59;;;;;;;;;;;23.30;42.20;;;;;;4985174;23;19933;-72
2023/04/30 13:16:25;;;;;;;;;;;22.90;42.10;;;;;;4949313;28;19922;-71
2023/04/30 13:18:50;;;;;;;;;;;23.80;40.40;;;;;;4960338;28;19914;-71
2023/04/30 13:21:16;;;;;;;;;;;23.80;40.70;;;;;;4966984;28;20346;-71
2023/04/30 13:23:42;;;;;;;;;;;23.50;41.20;;;;;;4952439;28;19925;-71
2023/04/30 13:26:08;;;;;;;;;;;23.60;41.60;;;;;;4948332;28;19946;-71
2023/04/30 13:28:33;;;;;;;;;;;24.00;40.00;;;;;;4953177;28;20283;-71
2023/04/30 13:30:59;;;;;;;;;;;24.50;40.90;;;;;;4938163;28;19910;-71
2023/04/30 13:33:25;;;;;;;;;;;24.70;40.70;;;;;;4962194;28;20311;-71
2023/04/30 13:35:51;;;;;;;;;;;26.10;39.60;;;;;;4945450;28;19918;-71
2023/04/30 13:38:16;;;;;;;;;;;26.90;38.00;;;;;;4930056;28;19922;-73
2023/04/30 13:40:42;;;;;;;;;;;25.70;39.10;;;;;;4960231;28;19946;-72
2023/04/30 13:43:08;;;;;;;;;;;25.90;39.10;;;;;;4941757;28;19997;-72
2023/04/30 13:45:33;;;;;;;;;;;25.80;39.90;;;;;;4939022;28;19914;-71
2023/04/30 13:47:59;;;;;;;;;;;26.10;36.50;;;;;;4946681;28;19914;-77
2023/04/30 13:50:24;;;;;;;;;;;26.40;36.50;;;;;;4947166;28;20297;-74
2023/04/30 13:52:50;;;;;;;;;;;26.30;36.10;;;;;;4949705;28;19914;-73
2023/04/30 13:55:16;;;;;;;;;;;27.10;35.70;;;;;;4945809;28;19914;-73
2023/04/30 13:57:41;;;;;;;;;;;26.30;35.80;;;;;;4950346;28;19918;-73
2023/04/30 14:00:07;;;;;;;;;;;26.70;35.20;;;;;;4935239;28;19911;-73
2023/04/30 14:02:33;;;;;;;;;;;25.70;36.80;;;;;;4966950;28;19924;-73
2023/04/30 14:05:02;;;;;;;;;;;25.70;37.80;;;;;;4953045;28;20382;-73
2023/04/30 14:07:28;;;;;;;;;;;24.00;38.80;;;;;;4949309;28;20013;-72
2023/04/30 14:09:53;;;;;;;;;;;22.40;40.50;;;;;;4953859;28;20457;-73
2023/04/30 14:12:20;;;;;;;;;;;21.00;42.80;;;;;;4949932;28;20350;-73
2023/04/30 14:14:46;;;;;;;;;;;19.80;44.60;;;;;;4948495;28;19914;-71
2023/04/30 14:17:11;;;;;;;;;;;19.60;44.90;;;;;;4934497;28;19917;-71
2023/04/30 14:19:37;;;;;;;;;;;19.40;45.60;;;;;;4950702;28;20321;-72
2023/04/30 14:22:03;;;;;;;;;;;18.70;45.90;;;;;;4950171;28;19914;-72
2023/04/30 14:24:28;;;;;;;;;;;18.20;46.90;;;;;;4950481;28;19914;-72